Aerial Acres, California
Current Conditions -  °F | °C
As of 9:58 AM on Thursday 29 Jan 2015 (Local Time) from KEDW Reporting Station
Overcast Overcast  
Wind Chill: 53°   Ceiling: 11000
Heat Index: 53°   Visibility: 91mi
Dew Point: 49°   Wind: 2mph
Humidity: 86%   Direction: 340°NNW
Pressure: 30.17"   Gusts: NA
Location:  34.931°N, 117.867°W
Report Text: KEDW 291758Z 34002KT 90SM BKN110 OVC150 12/10 A3017 RMK AO2A SLP212 T01170095 10117 20081 51006
Loading
Personal Weather Stations






























Interactive Weather Map New forecast layout! Learn more

10-Day Weather Forecast

Advertisements
Track Severe Weather on mobile